LGSY

Skiros Airport

Skiros Island, Greece
TAF LGSY 260500Z 2606/2615 33010KT 9999 FEW025
Issued Valid From Valid To
Apr-26 @ 05:00 UTC
(58 minutes ago)
Apr-26 @ 06:00 UTC
(in 2 minutes)
Apr-26 @ 15:00 UTC
(in 9 hours)
Apr-26 @ 06:00 to Apr-26 @ 15:00
TAF LGSY 260500Z 2606/2615 33010KT 9999 FEW025
Wind Visibility Clouds
330° at 10 knots 10,000+ meters
  • Few at 2,500' AGL
TAF LGSY 260500Z 2606/2615 33010KT 9999 FEW025
Issued Apr-26 @ 05:00 UTC
(58 minutes ago)
Valid From Apr-26 @ 06:00 UTC
(in 2 minutes)
Valid To Apr-26 @ 15:00 UTC
(in 9 hours)
Apr-26 @ 06:00 - Apr-26 @ 15:00
Wind Visibility
330° at 10 knots 10,000+ meters
Clouds
  • Few at 2,500' AGL